Time;durP1;ratioP1;P1;durP2;ratioP2;P2;SDS_P1;SDS_P2;PMS_P1;PMS_P2;Temp;Humidity;BMP_temperature;BMP_pressure;BME280_temperature;BME280_humidity;BME280_pressure;Samples;Min_cycle;Max_cycle;Signal;HPM_P1;HPM_P2
2022/05/26 00:02:07;;;;;;;;;0.00;0.00;;;;;16.83;57.79;101914.31;6325430;22;44755;-83
2022/05/26 00:04:37;;;;;;;;;2.33;2.33;;;;;16.79;57.82;101911.72;6301040;22;45325;-84
2022/05/26 00:07:10;;;;;;;;;0.00;0.00;;;;;16.73;58.11;101913.50;6329240;22;45288;-84
2022/05/26 00:09:37;;;;;;;;;1.00;1.00;;;;;16.71;58.58;101911.75;6294345;22;45566;-84
2022/05/26 00:12:11;;;;;;;;;1.00;1.00;;;;;16.70;58.43;101916.16;6283868;22;45224;-84
2022/05/26 00:14:43;;;;;;;;;1.33;1.00;;;;;16.68;58.59;101914.41;6285340;22;45597;-84
2022/05/26 00:17:11;;;;;;;;;1.00;1.00;;;;;16.63;58.61;101911.84;6284769;22;46970;-84
2022/05/26 00:19:39;;;;;;;;;1.00;1.00;;;;;16.59;58.84;101922.50;6314467;22;45229;-84
2022/05/26 00:22:07;;;;;;;;;2.00;2.00;;;;;16.55;59.43;101926.97;6284804;22;45357;-84
2022/05/26 00:24:42;;;;;;;;;2.33;1.33;;;;;16.53;58.98;101923.44;6314452;22;45464;-83
2022/05/26 00:27:10;;;;;;;;;1.00;1.00;;;;;16.48;58.56;101922.59;6283540;22;46108;-84
2022/05/26 00:29:40;;;;;;;;;2.00;2.00;;;;;16.44;59.02;101915.53;6284383;22;45256;-86
2022/05/26 00:32:13;;;;;;;;;1.67;1.67;;;;;16.42;59.26;101923.53;6283451;22;45311;-85
2022/05/26 00:34:44;;;;;;;;;2.33;1.33;;;;;16.45;59.04;101923.50;6284255;22;45370;-85
2022/05/26 00:37:24;;;;;;;;;1.00;1.00;;;;;16.45;59.11;101922.63;6283496;22;47172;-85
2022/05/26 00:39:50;;;;;;;;;1.00;1.00;;;;;16.48;58.83;101918.16;6284761;22;45314;-85
2022/05/26 00:42:20;;;;;;;;;2.00;1.00;;;;;16.51;58.98;101928.75;6284203;22;45298;-85
2022/05/26 00:44:51;;;;;;;;;0.33;0.33;;;;;16.52;58.94;101925.22;6284112;22;45401;-85
2022/05/26 00:47:21;;;;;;;;;1.00;0.33;;;;;16.51;58.65;101933.22;6283839;22;48149;-84
2022/05/26 00:50:06;;;;;;;;;1.00;0.67;;;;;16.51;58.78;101926.09;6307938;22;45218;-84
2022/05/26 00:52:57;;;;;;;;;0.67;0.00;;;;;16.53;58.66;101928.75;6285055;22;45207;-85
2022/05/26 00:55:40;;;;;;;;;1.00;1.00;;;;;16.49;58.70;101938.56;6311593;22;45314;-85
2022/05/26 00:58:17;;;;;;;;;0.00;0.00;;;;;16.47;58.62;101937.69;6284144;22;46665;-85
2022/05/26 01:00:53;;;;;;;;;;;;;;;;;;;;;
2022/05/26 01:03:30;;;;;;;;;1.00;1.00;;;;;16.46;58.87;101933.25;6312161;22;69144;-84
2022/05/26 01:06:20;;;;;;;;;1.50;1.50;;;;;16.51;58.87;101941.19;6311416;22;45126;-84
2022/05/26 01:08:51;;;;;;;;;0.33;0.00;;;;;16.49;58.84;101941.22;6284022;22;47593;-84
2022/05/26 01:11:19;;;;;;;;;1.00;0.67;;;;;16.45;59.18;101949.22;6311856;22;45155;-84
2022/05/26 01:13:58;;;;;;;;;1.00;1.00;;;;;16.44;59.43;101953.66;6311900;22;45357;-84
2022/05/26 01:16:47;;;;;;;;;0.67;0.67;;;;;16.41;59.50;101947.47;6311221;22;45097;-84
2022/05/26 01:19:45;;;;;;;;;2.33;2.33;;;;;16.38;59.82;101950.16;6309048;22;48257;-84
2022/05/26 01:23:11;;;;;;;;;0.00;0.00;;;;;16.34;60.06;101951.97;6312711;22;45380;-84
2022/05/26 01:26:10;;;;;;;;;1.33;1.33;;;;;16.26;60.73;101954.69;6310454;22;45428;-84
2022/05/26 01:29:13;;;;;;;;;1.33;1.00;;;;;16.18;61.45;101955.66;6309065;22;45437;-84
2022/05/26 01:31:46;;;;;;;;;2.67;2.00;;;;;16.09;61.86;101953.91;6283944;22;47285;-84
2022/05/26 01:34:39;;;;;;;;;2.67;1.00;;;;;16.07;62.07;101950.41;6308350;22;45317;-84
2022/05/26 01:37:42;;;;;;;;;4.00;2.00;;;;;16.06;62.64;101943.31;6284549;22;45339;-84
2022/05/26 01:40:44;;;;;;;;;2.33;1.00;;;;;16.05;62.62;101942.44;6312041;22;45176;-84
2022/05/26 01:43:24;;;;;;;;;2.00;2.00;;;;;16.08;62.90;101947.72;6282689;22;47413;-84
2022/05/26 01:46:08;;;;;;;;;2.00;1.00;;;;;16.09;63.10;101952.16;6312042;22;45325;-84
2022/05/26 01:48:49;;;;;;;;;2.00;2.00;;;;;16.12;63.20;101945.03;6283144;22;45425;-84
2022/05/26 01:51:25;;;;;;;;;2.00;2.00;;;;;16.16;63.12;101949.44;6312284;22;45150;-84
2022/05/26 01:53:54;;;;;;;;;0.00;0.00;;;;;16.18;63.40;101951.22;6282993;22;47257;-84
2022/05/26 01:56:56;;;;;;;;;;;;;;;;;;;;;
2022/05/26 01:59:31;;;;;;;;;1.33;1.33;;;;;16.20;63.41;101957.41;6310159;22;68777;-85
2022/05/26 02:02:15;;;;;;;;;1.00;1.00;;;;;16.22;63.54;101957.38;6311598;22;45226;-84
2022/05/26 02:04:57;;;;;;;;;2.00;2.00;;;;;16.24;63.20;101966.22;6313016;22;46118;-84
2022/05/26 02:07:38;;;;;;;;;1.00;1.00;;;;;16.24;63.27;101961.78;6282773;22;45290;-84
2022/05/26 02:10:28;;;;;;;;;1.00;1.00;;;;;16.24;63.53;101950.28;6305702;22;45244;-84
2022/05/26 02:13:11;;;;;;;;;2.00;1.00;;;;;16.29;63.56;101956.44;6310685;22;45355;-84
2022/05/26 02:16:02;;;;;;;;;4.00;2.00;;;;;16.27;63.46;101950.25;6312197;22;45400;-83
2022/05/26 02:18:57;;;;;;;;;1.00;1.00;;;;;16.31;63.09;101959.97;6298090;22;45119;-84
2022/05/26 02:21:39;;;;;;;;;2.00;1.67;;;;;16.29;63.85;101962.63;6283738;22;45186;-84
2022/05/26 02:24:23;;;;;;;;;0.00;0.00;;;;;16.32;63.65;101967.03;6312216;22;45164;-85
2022/05/26 02:26:57;;;;;;;;;2.00;1.67;;;;;16.28;63.66;101957.34;6282867;22;47492;-84
2022/05/26 02:32:15;;;;;;;;;2.33;1.00;;;;;16.24;63.74;101971.53;6311359;22;45231;-84
2022/05/26 02:34:47;;;;;;;;;1.00;1.00;;;;;16.23;64.06;101975.97;6309420;22;45401;-84
2022/05/26 02:37:32;;;;;;;;;1.00;1.00;;;;;16.22;64.24;101968.00;6282634;22;48136;-84
2022/05/26 02:40:03;;;;;;;;;0.00;0.00;;;;;16.19;64.30;101970.69;6284102;22;45158;-84
2022/05/26 02:42:58;;;;;;;;;1.67;1.00;;;;;16.18;64.62;101977.78;6311344;22;45277;-83
2022/05/26 02:45:58;;;;;;;;;1.00;1.00;;;;;16.11;64.74;101968.06;6283077;22;45155;-85
2022/05/26 02:48:49;;;;;;;;;1.33;1.00;;;;;16.07;65.24;101977.84;6310894;22;45499;-84
2022/05/26 02:51:51;;;;;;;;;1.67;1.67;;;;;16.01;65.72;101963.72;6308891;22;45214;-84
2022/05/26 02:54:30;;;;;;;;;0.00;0.00;;;;;15.99;65.63;101970.84;6284073;22;45526;-83
2022/05/26 02:57:19;;;;;;;;;1.00;1.00;;;;;15.93;65.84;101966.44;6282726;22;45657;-84
2022/05/26 03:00:11;;;;;;;;;0.00;0.00;;;;;15.88;66.15;101971.78;6311664;22;45519;-85
2022/05/26 03:02:41;;;;;;;;;2.00;2.00;;;;;15.88;66.37;101974.44;6283435;22;45198;-84
2022/05/26 03:05:37;;;;;;;;;1.00;1.00;;;;;15.89;66.98;101959.38;6283354;22;45408;-84
2022/05/26 03:08:13;;;;;;;;;2.00;0.00;;;;;15.89;66.66;101964.69;6283578;22;45359;-84
2022/05/26 03:10:51;;;;;;;;;2.00;2.00;;;;;15.87;67.11;101971.78;6282534;22;47210;-84
2022/05/26 03:13:23;;;;;;;;;1.00;1.00;;;;;15.86;66.93;101972.69;6282536;22;45215;-84
2022/05/26 03:15:52;;;;;;;;;1.00;1.00;;;;;15.80;66.65;101964.75;6282671;22;45382;-84
2022/05/26 03:18:20;;;;;;;;;0.00;0.00;;;;;15.77;67.05;101965.66;6282525;22;45413;-84
2022/05/26 03:20:53;;;;;;;;;2.00;1.00;;;;;15.81;67.04;101982.44;6283444;22;46255;-84
2022/05/26 03:23:30;;;;;;;;;0.00;0.00;;;;;15.79;67.24;101974.47;6283686;22;45540;-84
2022/05/26 03:25:59;;;;;;;;;0.67;0.67;;;;;15.77;67.53;101976.28;6311389;22;45364;-84
2022/05/26 03:28:39;;;;;;;;;0.67;0.67;;;;;15.75;67.45;101975.38;6311013;22;45400;-84
2022/05/26 03:31:07;;;;;;;;;1.00;1.00;;;;;15.70;66.95;101968.34;6282668;22;47799;-83
2022/05/26 03:42:00;;;;;;;;;0.00;0.00;;;;;15.57;67.39;101978.09;6311194;22;45231;-84
2022/05/26 03:44:40;;;;;;;;;1.00;1.00;;;;;15.59;67.58;101977.19;6310298;22;45187;-84
2022/05/26 03:47:11;;;;;;;;;0.00;0.00;;;;;15.61;67.71;101978.09;6283159;22;45379;-84
2022/05/26 03:49:43;;;;;;;;;0.00;0.00;;;;;15.66;67.31;101983.34;6282833;22;45428;-85
2022/05/26 03:52:11;;;;;;;;;1.00;1.00;;;;;15.67;67.43;101977.16;6284275;22;46793;-84
2022/05/26 03:54:41;;;;;;;;;1.00;1.00;;;;;15.68;67.27;101983.34;6310227;22;45147;-84
2022/05/26 03:57:30;;;;;;;;;1.67;1.00;;;;;15.66;67.73;101986.91;6283350;22;45410;-85
2022/05/26 03:59:58;;;;;;;;;1.25;1.25;;;;;15.70;67.12;101995.78;6278786;22;45196;-84
2022/05/26 04:02:27;;;;;;;;;1.33;1.00;;;;;15.69;67.27;101990.44;6311552;22;45411;-84
2022/05/26 04:04:57;;;;;;;;;3.00;1.00;;;;;15.70;67.34;101994.91;6282770;22;45336;-84
2022/05/26 04:07:37;;;;;;;;;1.33;1.00;;;;;15.71;67.25;102004.59;6311363;22;45216;-85
2022/05/26 04:10:07;;;;;;;;;1.67;1.67;;;;;15.70;67.21;102002.84;6311286;22;45369;-84
2022/05/26 04:12:58;;;;;;;;;4.00;1.67;;;;;15.70;67.24;102010.81;6311961;22;45267;-84
2022/05/26 04:15:26;;;;;;;;;2.00;2.00;;;;;15.70;67.42;102016.13;6283394;22;44673;-85
2022/05/26 04:18:02;;;;;;;;;1.00;1.00;;;;;15.70;67.21;102013.47;6282924;22;45272;-84
2022/05/26 04:20:29;;;;;;;;;1.00;1.00;;;;;15.70;67.25;102010.81;6311977;22;45497;-84
2022/05/26 04:23:15;;;;;;;;;2.00;2.00;;;;;15.69;66.82;102015.25;6310179;22;46061;-84
2022/05/26 04:25:48;;;;;;;;;1.67;1.00;;;;;15.71;66.86;102009.91;6313032;22;45345;-84
2022/05/26 04:28:16;;;;;;;;;3.00;1.00;;;;;15.70;66.46;102013.47;6283734;22;45427;-83
2022/05/26 04:30:55;;;;;;;;;1.33;0.00;;;;;15.69;66.38;102017.91;6312468;22;45284;-84
2022/05/26 04:33:20;;;;;;;;;0.00;0.00;;;;;15.69;66.61;102019.66;6283594;22;47482;-84
2022/05/26 04:35:51;;;;;;;;;3.33;3.00;;;;;15.69;66.38;102019.66;6284690;22;45633;-84
2022/05/26 04:38:19;;;;;;;;;2.00;1.33;;;;;15.71;66.62;102025.84;6284631;22;45362;-84
2022/05/26 04:41:14;;;;;;;;;1.75;1.75;;;;;15.74;66.42;102023.19;6312848;22;45460;-85
2022/05/26 04:43:40;;;;;;;;;1.67;1.67;;;;;15.75;66.12;102031.16;6286532;22;46157;-84
2022/05/26 04:46:08;;;;;;;;;1.67;1.67;;;;;15.74;66.47;102029.38;6283403;22;45188;-84
2022/05/26 04:48:34;;;;;;;;;4.00;3.00;;;;;15.77;66.35;102033.78;6313250;22;45286;-80
2022/05/26 04:51:07;;;;;;;;;2.67;2.00;;;;;15.80;66.16;102033.78;6282439;22;45500;-82
2022/05/26 04:53:32;;;;;;;;;5.00;2.00;;;;;15.79;65.89;102032.00;6284243;22;47074;-80
2022/05/26 04:55:58;;;;;;;;;2.00;2.00;;;;;15.82;66.09;102037.31;6310986;22;45219;-79
2022/05/26 04:58:23;;;;;;;;;2.00;2.00;;;;;15.83;66.17;102039.97;6312026;22;45216;-79
2022/05/26 05:00:49;;;;;;;;;2.33;1.67;;;;;15.85;65.61;102038.19;6310680;22;45383;-79
2022/05/26 05:03:15;;;;;;;;;2.00;1.33;;;;;15.90;65.73;102051.41;6310093;22;47567;-78
2022/05/26 05:05:40;;;;;;;;;1.00;1.00;;;;;15.92;65.84;102048.78;6310502;22;45307;-79
2022/05/26 05:08:06;;;;;;;;;2.33;2.33;;;;;15.95;65.89;102046.09;6283517;22;45262;-79
2022/05/26 05:10:32;;;;;;;;;2.00;2.00;;;;;15.99;66.16;102048.75;6283044;22;45393;-79
2022/05/26 05:12:58;;;;;;;;;2.00;2.00;;;;;16.03;65.75;102054.91;6311930;22;46066;-79
2022/05/26 05:15:31;;;;;;;;;1.00;1.00;;;;;16.08;65.51;102053.13;6283713;22;45180;-79
2022/05/26 05:17:57;;;;;;;;;2.00;1.00;;;;;16.09;65.54;102052.22;6311008;22;45254;-79
2022/05/26 05:20:23;;;;;;;;;2.67;2.67;;;;;16.12;65.30;102052.22;6308726;22;45682;-79
2022/05/26 05:22:57;;;;;;;;;1.33;1.00;;;;;16.17;65.09;102057.47;6314665;22;45618;-80
2022/05/26 05:25:27;;;;;;;;;1.00;1.00;;;;;16.19;65.10;102047.75;6310982;22;45338;-80
2022/05/26 05:28:00;;;;;;;;;1.00;1.00;;;;;16.23;64.78;102057.47;6285188;22;45388;-79
2022/05/26 05:30:34;;;;;;;;;1.00;0.00;;;;;16.23;64.92;102058.34;6311866;22;45124;-80
2022/05/26 05:33:19;;;;;;;;;1.00;1.00;;;;;16.25;64.65;102053.91;6283595;22;46057;-78
2022/05/26 05:35:53;;;;;;;;;1.00;1.00;;;;;16.26;64.34;102060.09;6287190;22;45357;-78
2022/05/26 05:38:20;;;;;;;;;3.00;3.00;;;;;16.23;64.25;102061.00;6279495;22;45169;-78
2022/05/26 05:40:46;;;;;;;;;1.67;1.00;;;;;16.25;64.43;102060.97;6280688;22;45221;-78
2022/05/26 05:43:12;;;;;;;;;2.00;2.00;;;;;16.25;64.51;102067.19;6279661;22;45490;-78
2022/05/26 05:45:39;;;;;;;;;2.00;2.00;;;;;16.30;64.78;102072.47;6279858;22;45082;-78
2022/05/26 05:48:05;;;;;;;;;1.33;1.33;;;;;16.32;64.24;102082.19;6280475;22;45417;-78
2022/05/26 05:50:30;;;;;;;;;2.67;1.00;;;;;16.34;64.23;102076.88;6251728;22;45401;-79
2022/05/26 05:52:56;;;;;;;;;2.00;2.00;;;;;16.37;63.91;102074.19;6279929;22;45293;-79
2022/05/26 05:55:22;;;;;;;;;2.00;2.00;;;;;16.40;63.95;102078.63;6278316;22;45388;-79
2022/05/26 05:57:48;;;;;;;;;3.00;1.33;;;;;16.41;63.80;102085.69;6252655;22;45309;-78
2022/05/26 06:00:16;;;;;;;;;1.33;1.33;;;;;16.46;63.79;102086.53;6278127;22;45165;-78
2022/05/26 06:02:42;;;;;;;;;1.00;1.00;;;;;16.49;63.97;102094.50;6273368;22;46317;-78
2022/05/26 06:05:08;;;;;;;;;1.33;1.33;;;;;16.50;63.78;102093.63;6249559;22;45570;-78
2022/05/26 06:07:34;;;;;;;;;1.00;1.00;;;;;16.55;63.66;102094.47;6278296;22;45292;-78
2022/05/26 06:10:00;;;;;;;;;1.67;1.00;;;;;16.57;63.02;102094.44;6250155;22;45410;-78
2022/05/26 06:12:25;;;;;;;;;2.67;2.00;;;;;16.59;63.25;102101.53;6249827;22;47391;-78
2022/05/26 06:14:51;;;;;;;;;2.00;1.00;;;;;16.61;63.59;102106.84;6277681;22;45450;-78
2022/05/26 06:17:19;;;;;;;;;1.00;1.00;;;;;16.62;63.18;102105.94;6277438;22;45678;-78
2022/05/26 06:19:44;;;;;;;;;1.33;1.00;;;;;16.61;63.37;102113.03;6249851;22;45768;-78
2022/05/26 06:22:18;;;;;;;;;1.33;1.33;;;;;16.60;63.32;102113.94;6274550;22;48114;-78
2022/05/26 06:24:45;;;;;;;;;1.33;1.00;;;;;16.61;63.45;102115.69;6278349;22;45259;-78
2022/05/26 06:29:59;;;;;;;;;1.33;1.33;;;;;16.68;63.60;102116.53;6278369;22;45201;-78
2022/05/26 06:37:55;;;;;;;;;1.00;1.00;;;;;16.83;62.63;102123.56;6308320;22;45487;-78
2022/05/26 06:40:21;;;;;;;;;2.00;2.00;;;;;16.88;62.93;102127.94;6334606;22;45450;-78
2022/05/26 06:42:48;;;;;;;;;1.00;1.00;;;;;16.98;62.89;102128.75;6308094;22;45486;-78
2022/05/26 06:45:18;;;;;;;;;1.00;1.00;;;;;17.08;62.74;102137.53;6307552;22;45632;-78
2022/05/26 06:47:44;;;;;;;;;0.00;0.00;;;;;17.12;62.25;102134.84;6305568;22;45228;-78
2022/05/26 06:50:10;;;;;;;;;1.00;1.00;;;;;17.16;62.31;102146.34;6306946;22;45358;-78
2022/05/26 06:52:36;;;;;;;;;1.00;1.00;;;;;17.16;61.97;102141.91;6308880;22;45400;-78
2022/05/26 06:55:05;;;;;;;;;2.00;1.67;;;;;17.14;62.30;102148.16;6306591;22;45379;-78
2022/05/26 06:57:30;;;;;;;;;0.00;0.00;;;;;17.12;62.36;102160.56;6332274;22;45603;-78
2022/05/26 07:00:00;;;;;;;;;1.33;1.33;;;;;17.03;62.34;102156.22;6333518;22;45365;-78
2022/05/26 07:02:25;;;;;;;;;1.00;1.00;;;;;17.01;62.88;102157.13;6306586;22;48009;-78
2022/05/26 07:04:51;;;;;;;;;1.33;1.33;;;;;17.04;63.29;102165.06;6332830;22;45418;-78
2022/05/26 07:07:17;;;;;;;;;2.00;2.00;;;;;17.03;63.50;102165.97;6306607;22;45375;-78
2022/05/26 07:09:43;;;;;;;;;1.00;1.00;;;;;17.02;63.59;102162.41;6309066;22;45452;-78
2022/05/26 07:12:09;;;;;;;;;1.33;1.33;;;;;17.04;63.37;102168.63;6306093;22;47771;-77
2022/05/26 07:14:35;;;;;;;;;0.00;0.00;;;;;17.01;63.81;102158.00;6308315;22;45270;-79
2022/05/26 07:17:01;;;;;;;;;1.00;1.00;;;;;16.98;63.54;102158.03;6306868;22;45278;-79
2022/05/26 07:19:26;;;;;;;;;0.33;0.33;;;;;17.03;63.38;102171.31;6296356;22;45522;-78
2022/05/26 07:21:52;;;;;;;;;1.00;1.00;;;;;17.09;63.50;102169.47;6307830;22;45304;-77
2022/05/26 07:24:21;;;;;;;;;2.00;2.00;;;;;17.27;63.78;102165.78;6308087;22;45257;-78
2022/05/26 07:26:47;;;;;;;;;1.00;1.00;;;;;17.40;62.89;102167.44;6308388;22;45370;-78
2022/05/26 07:29:14;;;;;;;;;0.00;0.00;;;;;17.43;62.29;102174.50;6307688;22;45423;-78
2022/05/26 07:31:40;;;;;;;;;0.00;0.00;;;;;17.40;62.13;102180.75;6306365;22;47939;-78
2022/05/26 07:34:05;;;;;;;;;1.00;1.00;;;;;17.33;62.39;102176.38;6307083;22;45282;-77
2022/05/26 07:42:03;;;;;;;;;1.67;1.67;;;;;17.28;63.71;102207.47;6307106;22;45306;-78
2022/05/26 07:44:32;;;;;;;;;4.00;4.00;;;;;17.25;63.23;102211.94;6304586;22;45741;-78
2022/05/26 07:46:58;;;;;;;;;2.00;2.00;;;;;17.23;63.21;102216.38;6280018;22;45350;-78
2022/05/26 07:49:24;;;;;;;;;5.67;3.67;;;;;17.20;63.00;102214.63;6304862;22;45696;-78
2022/05/26 07:51:49;;;;;;;;;7.33;5.67;;;;;17.29;63.17;102218.97;6308301;22;45577;-78
2022/05/26 07:54:14;;;;;;;;;4.00;3.33;;;;;17.36;63.04;102226.03;6331161;22;45315;-77
2022/05/26 07:56:40;;;;;;;;;3.33;3.33;;;;;17.40;62.50;102223.34;6308441;22;46017;-78
2022/05/26 07:59:07;;;;;;;;;8.67;6.00;;;;;17.39;62.70;102218.91;6290109;22;45779;-78
2022/05/26 08:01:33;;;;;;;;;1.00;0.33;;;;;17.43;62.78;102225.09;6306663;22;47244;-77
2022/05/26 08:03:58;;;;;;;;;5.00;5.00;;;;;17.49;62.47;102229.50;6308161;22;45189;-77
2022/05/26 08:06:24;;;;;;;;;3.67;3.00;;;;;17.48;62.41;102225.03;6307576;22;45662;-79
2022/05/26 08:08:50;;;;;;;;;5.67;5.00;;;;;17.50;62.44;102229.47;6309631;22;45514;-78
2022/05/26 08:11:16;;;;;;;;;3.67;3.67;;;;;17.60;62.02;102228.47;6309794;22;45423;-80
2022/05/26 08:13:41;;;;;;;;;4.00;3.00;;;;;17.62;61.59;102226.69;6307046;22;45581;-79
2022/05/26 08:16:07;;;;;;;;;2.67;2.33;;;;;17.63;61.56;102230.25;6308032;22;45410;-79
2022/05/26 08:18:33;;;;;;;;;4.00;4.00;;;;;17.63;61.29;102232.91;6306703;22;45562;-79
2022/05/26 08:21:07;;;;;;;;;5.33;4.33;;;;;17.61;60.95;102227.59;6309345;22;45474;-79
2022/05/26 08:23:32;;;;;;;;;3.00;3.00;;;;;17.67;60.86;102229.31;6332688;22;45484;-78
2022/05/26 08:25:58;;;;;;;;;4.33;4.33;;;;;17.77;60.65;102236.31;6307508;22;45283;-79
2022/05/26 08:28:24;;;;;;;;;4.00;3.00;;;;;17.92;60.58;102237.97;6333237;22;45421;-81
2022/05/26 08:30:49;;;;;;;;;2.00;1.33;;;;;18.07;60.50;102232.50;6309509;22;45536;-80
2022/05/26 08:33:15;;;;;;;;;3.33;2.33;;;;;18.24;59.72;102226.09;6309082;22;45238;-77
2022/05/26 08:35:40;;;;;;;;;5.33;4.33;;;;;18.41;59.40;102234.75;6306329;22;45548;-78
2022/05/26 08:38:06;;;;;;;;;4.00;3.00;;;;;18.58;59.34;102229.22;6308517;22;45528;-78
2022/05/26 08:40:49;;;;;;;;;3.67;3.67;;;;;18.75;58.59;102230.81;6308722;22;45470;-78
2022/05/26 08:43:21;;;;;;;;;5.67;5.00;;;;;18.86;58.13;102232.41;6308328;22;45240;-78
2022/05/26 08:45:53;;;;;;;;;4.67;3.33;;;;;18.99;58.12;102230.44;6308874;22;45299;-78
2022/05/26 08:49:02;;;;;;;;;3.33;3.33;;;;;19.07;57.67;102230.34;6308350;22;45445;-79
2022/05/26 08:51:31;;;;;;;;;2.67;2.67;;;;;19.13;57.09;102238.25;6305943;22;47611;-78
2022/05/26 08:53:59;;;;;;;;;5.33;4.00;;;;;19.08;57.20;102227.63;6281668;22;45282;-79
2022/05/26 08:56:26;;;;;;;;;2.00;2.00;;;;;19.10;56.83;102239.16;6306250;22;45377;-79
2022/05/26 08:58:58;;;;;;;;;3.00;2.00;;;;;19.15;56.73;102244.44;6306991;22;45456;-79
2022/05/26 09:01:31;;;;;;;;;4.00;3.00;;;;;19.17;56.55;102248.88;6308042;22;45785;-79
2022/05/26 09:03:58;;;;;;;;;3.00;3.00;;;;;19.25;55.79;102250.53;6305091;22;45537;-79
2022/05/26 09:06:25;;;;;;;;;3.00;3.00;;;;;19.29;55.39;102255.78;6305331;22;45484;-79
2022/05/26 09:14:41;;;;;;;;;4.00;4.00;;;;;19.44;54.43;102248.47;6307716;22;45344;-79
2022/05/26 09:17:10;;;;;;;;;3.00;2.00;;;;;19.56;53.59;102251.78;6279842;22;45671;-79
2022/05/26 09:19:42;;;;;;;;;4.67;3.00;;;;;19.69;53.44;102251.63;6305722;22;45346;-79
2022/05/26 09:22:26;;;;;;;;;2.67;1.00;;;;;19.75;52.86;102254.16;6306003;22;46238;-79
2022/05/26 09:24:52;;;;;;;;;3.33;2.33;;;;;19.75;52.77;102264.84;6306107;22;45340;-80
2022/05/26 09:27:38;;;;;;;;;3.33;3.33;;;;;19.76;52.48;102264.84;6332121;22;45418;-80
2022/05/26 09:30:26;;;;;;;;;3.00;3.00;;;;;19.75;52.32;102262.19;6305574;22;45703;-80
2022/05/26 09:32:53;;;;;;;;;4.00;3.33;;;;;19.82;52.05;102262.06;6305473;22;46164;-79
2022/05/26 09:35:18;;;;;;;;;3.00;3.00;;;;;19.88;51.90;102274.44;6300743;22;45458;-80
2022/05/26 09:37:48;;;;;;;;;3.00;3.00;;;;;19.92;51.94;102273.47;6310764;22;45193;-81
2022/05/26 09:40:18;;;;;;;;;2.67;2.67;;;;;19.97;51.64;102270.72;6302095;22;45831;-77
2022/05/26 09:42:45;;;;;;;;;3.67;3.00;;;;;20.11;51.65;102281.16;6308286;22;46374;-78
2022/05/26 09:45:14;;;;;;;;;2.67;2.00;;;;;20.28;51.12;102276.34;6308778;22;45543;-77
2022/05/26 09:47:53;;;;;;;;;2.00;1.67;;;;;20.46;51.10;102281.34;6309288;22;45255;-81
2022/05/26 09:50:35;;;;;;;;;3.67;3.67;;;;;20.58;50.48;102274.91;6280134;22;45291;-80
2022/05/26 09:53:04;;;;;;;;;3.33;3.33;;;;;20.66;50.70;102280.97;6281225;22;48123;-79
2022/05/26 09:55:44;;;;;;;;;3.00;2.00;;;;;20.66;50.72;102280.06;6305957;22;45423;-79
2022/05/26 09:58:27;;;;;;;;;4.00;2.67;;;;;20.65;50.62;102286.34;6308880;22;45228;-79
2022/05/26 10:00:55;;;;;;;;;3.67;2.67;;;;;20.66;50.45;102280.97;6307842;22;44670;-81
2022/05/26 10:03:33;;;;;;;;;3.00;3.00;;;;;20.61;50.06;102284.63;6300995;22;47185;-81
2022/05/26 10:06:25;;;;;;;;;2.33;2.33;;;;;20.58;50.20;102290.97;6279730;22;45240;-77
2022/05/26 10:09:05;;;;;;;;;1.67;1.67;;;;;20.57;50.09;102293.66;6309609;22;45398;-76
2022/05/26 10:12:09;;;;;;;;;1.33;1.33;;;;;20.58;49.96;102292.72;6308433;22;45507;-76
2022/05/26 10:15:10;;;;;;;;;2.00;2.00;;;;;20.64;50.41;102293.50;6306723;22;46098;-77
2022/05/26 10:18:01;;;;;;;;;2.00;2.00;;;;;20.71;49.71;102291.56;6200272;22;45423;-77
2022/05/26 10:21:01;;;;;;;;;1.33;1.33;;;;;20.73;49.69;102289.75;6305609;22;45330;-80
2022/05/26 10:24:00;;;;;;;;;1.33;1.33;;;;;20.85;49.52;102291.25;6307485;22;45250;-78
2022/05/26 10:26:32;;;;;;;;;2.67;1.67;;;;;20.90;49.45;102295.63;6306580;22;46115;-81
2022/05/26 10:29:04;;;;;;;;;2.00;1.00;;;;;20.92;49.13;102299.13;6308617;22;45271;-80
2022/05/26 10:31:51;;;;;;;;;1.00;1.00;;;;;20.85;49.32;102301.97;6306594;22;45232;-77
2022/05/26 10:34:35;;;;;;;;;2.33;2.33;;;;;20.76;48.97;102287.00;6306041;22;45488;-78
2022/05/26 10:37:32;;;;;;;;;1.00;1.00;;;;;20.69;49.38;102299.63;6309066;22;45260;-78
2022/05/26 10:40:38;;;;;;;;;1.67;1.67;;;;;20.84;49.08;102284.16;6306283;22;45251;-77
2022/05/26 10:43:08;;;;;;;;;0.67;0.33;;;;;21.02;49.41;102288.22;6244145;22;45627;-77
2022/05/26 10:45:37;;;;;;;;;2.00;1.67;;;;;21.15;48.68;102287.91;6318355;22;45491;-77
2022/05/26 10:48:21;;;;;;;;;1.33;1.00;;;;;21.33;48.27;102288.38;6306805;22;46971;-81
2022/05/26 10:50:58;;;;;;;;;0.00;0.00;;;;;21.49;48.10;102286.25;6279999;22;45696;-79
2022/05/26 10:53:41;;;;;;;;;0.33;0.33;;;;;21.54;47.62;102292.38;6309023;22;45088;-80
2022/05/26 10:56:12;;;;;;;;;1.33;1.33;;;;;21.45;47.62;102285.44;6308859;22;45255;-79
2022/05/26 10:58:48;;;;;;;;;4.67;3.00;;;;;21.40;47.79;102289.16;6280422;22;46314;-80
2022/05/26 11:01:45;;;;;;;;;3.67;2.67;;;;;21.30;47.36;102285.78;6306665;22;45902;-79
2022/05/26 11:04:19;;;;;;;;;1.67;1.67;;;;;21.12;47.83;102304.06;6281688;22;45230;-81
2022/05/26 11:06:46;;;;;;;;;13.00;10.00;;;;;20.95;47.89;102298.19;6306482;22;45362;-80
2022/05/26 11:09:44;;;;;;;;;4.67;3.67;;;;;21.01;48.53;102291.81;6306521;22;46226;-80
2022/05/26 11:12:40;;;;;;;;;7.00;6.00;;;;;21.14;47.71;102296.88;6306709;22;45690;-81
2022/05/26 11:18:15;;;;;;;;;10.00;8.00;;;;;21.45;47.77;102290.81;6308743;22;45140;-79
2022/05/26 11:20:50;;;;;;;;;6.67;4.00;;;;;21.61;47.44;102280.59;6305903;22;46884;-79
2022/05/26 11:23:17;;;;;;;;;2.00;2.00;;;;;21.78;47.47;102289.09;6306188;22;45275;-81
2022/05/26 11:25:58;;;;;;;;;1.33;1.33;;;;;22.06;47.11;102291.03;6308473;22;45184;-82
2022/05/26 11:28:47;;;;;;;;;2.00;2.00;;;;;22.22;46.85;102287.03;6299970;22;45528;-81
2022/05/26 11:37:50;;;;;;;;;2.00;2.00;;;;;22.43;46.31;102282.00;6310682;22;45375;-82
2022/05/26 11:40:28;;;;;;;;;1.00;1.00;;;;;22.52;45.77;102271.00;6307797;22;45569;-82
2022/05/26 11:43:07;;;;;;;;;;;;;;;;;;;;;
2022/05/26 11:45:36;;;;;;;;;0.00;0.00;;;;;22.71;45.17;102262.41;6296658;22;72506;-81
2022/05/26 11:48:26;;;;;;;;;0.67;0.67;;;;;22.78;44.86;102262.16;6282162;22;45343;-81
2022/05/26 11:51:14;;;;;;;;;1.00;1.00;;;;;22.85;44.09;102255.69;6309579;22;46050;-82
2022/05/26 11:53:44;;;;;;;;;0.00;0.00;;;;;22.93;43.89;102260.78;6309778;22;46633;-81
2022/05/26 11:56:29;;;;;;;;;2.00;1.00;;;;;23.09;43.17;102262.13;6280777;22;45737;-80
2022/05/26 11:59:44;;;;;;;;;0.00;0.00;;;;;23.37;43.46;102261.22;6280735;22;45391;-81
2022/05/26 12:02:35;;;;;;;;;1.00;1.00;;;;;23.81;42.37;102256.16;6263653;22;45561;-82
2022/05/26 12:05:29;;;;;;;;;1.00;0.00;;;;;24.07;42.37;102268.69;6309497;22;45236;-85
2022/05/26 12:08:28;;;;;;;;;1.33;1.00;;;;;24.19;42.33;102265.56;6281200;22;45347;-83
2022/05/26 12:14:40;;;;;;;;;0.00;0.00;;;;;24.28;41.92;102258.97;6224402;22;45288;-83
2022/05/26 12:18:15;;;;;;;;;0.00;0.00;;;;;24.28;41.48;102253.59;6291916;22;46560;-85
2022/05/26 12:20:23;;;;;;;;;0.00;0.00;;;;;24.13;41.31;102256.84;6293767;22;45303;-82
2022/05/26 12:23:15;;;;;;;;;0.33;0.33;;;;;23.92;42.28;102262.06;6283242;22;45394;-87
2022/05/26 12:26:19;;;;;;;;;0.33;0.00;;;;;23.93;42.16;102262.94;6301074;22;45769;-83
2022/05/26 12:28:47;;;;;;;;;2.00;1.00;;;;;23.95;41.48;102264.66;6242465;22;47763;-81
2022/05/26 12:31:12;;;;;;;;;0.00;0.00;;;;;23.97;41.96;102265.44;6305993;22;45409;-82
2022/05/26 12:33:47;;;;;;;;;1.00;1.00;;;;;24.01;41.95;102265.38;6315921;22;45327;-83
2022/05/26 12:36:40;;;;;;;;;1.00;0.00;;;;;23.99;41.50;102260.03;6292958;22;45472;-84
2022/05/26 12:39:47;;;;;;;;;0.00;0.00;;;;;23.78;41.71;102253.59;6318734;22;46765;-81
2022/05/26 12:42:37;;;;;;;;;3.00;3.00;;;;;23.54;42.13;102252.59;6315480;22;45344;-82
2022/05/26 12:45:37;;;;;;;;;1.00;1.00;;;;;23.36;42.54;102256.75;6314864;22;45220;-80
2022/05/26 14:13:20;;;;;;;;;0.33;0.33;;;;;25.44;38.40;102187.94;6011311;23;46005;-86
2022/05/26 14:16:16;;;;;;;;;1.00;1.00;;;;;25.62;38.15;102188.97;6034474;23;47170;-84
2022/05/26 14:18:51;;;;;;;;;1.00;1.00;;;;;25.83;38.24;102179.06;6191849;22;45351;-81